sensor_id;sensor_type;location;lat;lon;timestamp;P1;durP1;ratioP1;P2;durP2;ratioP2
44440;SDS011;30146;52.268;20.944;2023-05-10T00:01:53;12.30;;;6.00;;
44440;SDS011;30146;52.268;20.944;2023-05-10T00:04:21;8.50;;;5.50;;
44440;SDS011;30146;52.268;20.944;2023-05-10T00:06:49;12.00;;;6.10;;
44440;SDS011;30146;52.268;20.944;2023-05-10T00:09:17;8.00;;;5.70;;
44440;SDS011;30146;52.268;20.944;2023-05-10T00:11:45;8.70;;;5.50;;
44440;SDS011;30146;52.268;20.944;2023-05-10T00:14:13;9.30;;;5.10;;
44440;SDS011;30146;52.268;20.944;2023-05-10T00:16:42;11.50;;;5.40;;
44440;SDS011;30146;52.268;20.944;2023-05-10T00:19:10;10.80;;;5.60;;
44440;SDS011;30146;52.268;20.944;2023-05-10T00:21:39;7.40;;;4.70;;
44440;SDS011;30146;52.268;20.944;2023-05-10T00:24:07;7.50;;;5.10;;
44440;SDS011;30146;52.268;20.944;2023-05-10T00:26:35;8.70;;;5.90;;
44440;SDS011;30146;52.268;20.944;2023-05-10T00:29:04;9.30;;;5.50;;
44440;SDS011;30146;52.268;20.944;2023-05-10T00:31:32;9.00;;;5.30;;
44440;SDS011;30146;52.268;20.944;2023-05-10T00:34:00;9.20;;;4.80;;
44440;SDS011;30146;52.268;20.944;2023-05-10T00:36:29;13.90;;;5.20;;
44440;SDS011;30146;52.268;20.944;2023-05-10T00:38:58;14.40;;;5.80;;
44440;SDS011;30146;52.268;20.944;2023-05-10T00:41:27;11.70;;;4.80;;
44440;SDS011;30146;52.268;20.944;2023-05-10T00:43:55;8.60;;;4.90;;
44440;SDS011;30146;52.268;20.944;2023-05-10T00:46:24;8.40;;;5.00;;
44440;SDS011;30146;52.268;20.944;2023-05-10T00:48:52;8.50;;;4.90;;
44440;SDS011;30146;52.268;20.944;2023-05-10T00:51:21;8.10;;;5.50;;
44440;SDS011;30146;52.268;20.944;2023-05-10T00:53:49;12.20;;;5.20;;
44440;SDS011;30146;52.268;20.944;2023-05-10T00:56:18;7.70;;;4.40;;
44440;SDS011;30146;52.268;20.944;2023-05-10T00:58:49;8.70;;;5.60;;
44440;SDS011;30146;52.268;20.944;2023-05-10T01:01:18;5.10;;;4.10;;
44440;SDS011;30146;52.268;20.944;2023-05-10T01:03:47;7.10;;;5.00;;
44440;SDS011;30146;52.268;20.944;2023-05-10T01:06:15;11.90;;;4.90;;
44440;SDS011;30146;52.268;20.944;2023-05-10T01:08:44;9.10;;;4.80;;
44440;SDS011;30146;52.268;20.944;2023-05-10T01:11:12;9.10;;;4.80;;
44440;SDS011;30146;52.268;20.944;2023-05-10T01:13:40;10.00;;;5.00;;
44440;SDS011;30146;52.268;20.944;2023-05-10T01:16:10;8.50;;;4.90;;
44440;SDS011;30146;52.268;20.944;2023-05-10T01:18:39;6.40;;;4.50;;
44440;SDS011;30146;52.268;20.944;2023-05-10T01:21:13;10.50;;;5.80;;
44440;SDS011;30146;52.268;20.944;2023-05-10T01:23:50;11.30;;;4.70;;
44440;SDS011;30146;52.268;20.944;2023-05-10T01:26:49;8.10;;;4.80;;
44440;SDS011;30146;52.268;20.944;2023-05-10T01:32:49;7.60;;;5.10;;
44440;SDS011;30146;52.268;20.944;2023-05-10T01:35:26;7.50;;;5.00;;
44440;SDS011;30146;52.268;20.944;2023-05-10T01:37:59;10.90;;;5.80;;
44440;SDS011;30146;52.268;20.944;2023-05-10T01:40:42;8.70;;;4.70;;
44440;SDS011;30146;52.268;20.944;2023-05-10T01:43:30;14.80;;;5.10;;
44440;SDS011;30146;52.268;20.944;2023-05-10T01:46:14;7.70;;;4.80;;
44440;SDS011;30146;52.268;20.944;2023-05-10T01:48:47;7.00;;;4.30;;
44440;SDS011;30146;52.268;20.944;2023-05-10T01:51:22;11.40;;;5.20;;
44440;SDS011;30146;52.268;20.944;2023-05-10T01:53:54;7.70;;;5.20;;
44440;SDS011;30146;52.268;20.944;2023-05-10T01:56:29;13.10;;;5.30;;
44440;SDS011;30146;52.268;20.944;2023-05-10T01:59:00;7.30;;;4.70;;
44440;SDS011;30146;52.268;20.944;2023-05-10T02:01:35;6.60;;;4.70;;
44440;SDS011;30146;52.268;20.944;2023-05-10T02:04:05;7.30;;;5.10;;
44440;SDS011;30146;52.268;20.944;2023-05-10T02:06:37;6.80;;;4.10;;
44440;SDS011;30146;52.268;20.944;2023-05-10T02:09:07;8.30;;;5.00;;
44440;SDS011;30146;52.268;20.944;2023-05-10T02:11:36;8.10;;;4.90;;
44440;SDS011;30146;52.268;20.944;2023-05-10T02:14:06;7.60;;;5.30;;
44440;SDS011;30146;52.268;20.944;2023-05-10T02:16:36;7.10;;;4.80;;
44440;SDS011;30146;52.268;20.944;2023-05-10T02:19:06;7.90;;;5.50;;
44440;SDS011;30146;52.268;20.944;2023-05-10T02:21:36;8.10;;;5.10;;
44440;SDS011;30146;52.268;20.944;2023-05-10T02:24:06;9.80;;;5.30;;
44440;SDS011;30146;52.268;20.944;2023-05-10T02:26:37;6.80;;;4.30;;
44440;SDS011;30146;52.268;20.944;2023-05-10T02:29:06;9.10;;;4.50;;
44440;SDS011;30146;52.268;20.944;2023-05-10T02:31:36;7.80;;;4.70;;
44440;SDS011;30146;52.268;20.944;2023-05-10T02:34:05;10.30;;;4.70;;
44440;SDS011;30146;52.268;20.944;2023-05-10T02:36:35;9.10;;;5.10;;
44440;SDS011;30146;52.268;20.944;2023-05-10T02:39:04;5.90;;;4.80;;
44440;SDS011;30146;52.268;20.944;2023-05-10T02:41:36;10.30;;;4.90;;
44440;SDS011;30146;52.268;20.944;2023-05-10T02:44:07;7.50;;;4.20;;
44440;SDS011;30146;52.268;20.944;2023-05-10T02:46:38;15.20;;;5.10;;
44440;SDS011;30146;52.268;20.944;2023-05-10T02:49:06;7.60;;;6.10;;
44440;SDS011;30146;52.268;20.944;2023-05-10T02:51:34;11.00;;;4.80;;
44440;SDS011;30146;52.268;20.944;2023-05-10T02:54:09;11.90;;;5.30;;
44440;SDS011;30146;52.268;20.944;2023-05-10T02:56:40;6.50;;;4.70;;
44440;SDS011;30146;52.268;20.944;2023-05-10T02:59:14;9.50;;;4.90;;
44440;SDS011;30146;52.268;20.944;2023-05-10T03:01:42;9.40;;;6.40;;
44440;SDS011;30146;52.268;20.944;2023-05-10T03:04:10;8.60;;;5.20;;
44440;SDS011;30146;52.268;20.944;2023-05-10T03:06:38;9.40;;;5.20;;
44440;SDS011;30146;52.268;20.944;2023-05-10T03:09:07;13.90;;;5.70;;
44440;SDS011;30146;52.268;20.944;2023-05-10T03:11:46;6.60;;;5.00;;
44440;SDS011;30146;52.268;20.944;2023-05-10T03:14:24;7.50;;;4.80;;
44440;SDS011;30146;52.268;20.944;2023-05-10T03:17:04;8.60;;;4.80;;
44440;SDS011;30146;52.268;20.944;2023-05-10T03:22:08;6.00;;;3.90;;
44440;SDS011;30146;52.268;20.944;2023-05-10T03:24:40;8.70;;;4.80;;
44440;SDS011;30146;52.268;20.944;2023-05-10T03:27:09;13.40;;;4.50;;
44440;SDS011;30146;52.268;20.944;2023-05-10T03:29:38;7.90;;;5.10;;
44440;SDS011;30146;52.268;20.944;2023-05-10T03:32:08;6.00;;;4.50;;
44440;SDS011;30146;52.268;20.944;2023-05-10T03:34:36;7.10;;;4.80;;
44440;SDS011;30146;52.268;20.944;2023-05-10T03:37:09;7.40;;;4.80;;
44440;SDS011;30146;52.268;20.944;2023-05-10T03:39:37;11.60;;;5.70;;
44440;SDS011;30146;52.268;20.944;2023-05-10T03:42:06;7.80;;;5.30;;
44440;SDS011;30146;52.268;20.944;2023-05-10T03:44:34;10.60;;;5.90;;
44440;SDS011;30146;52.268;20.944;2023-05-10T03:47:02;8.80;;;4.60;;
44440;SDS011;30146;52.268;20.944;2023-05-10T03:49:30;8.80;;;5.20;;
44440;SDS011;30146;52.268;20.944;2023-05-10T03:51:59;10.00;;;4.30;;
44440;SDS011;30146;52.268;20.944;2023-05-10T03:54:27;10.00;;;5.10;;
44440;SDS011;30146;52.268;20.944;2023-05-10T03:56:55;8.00;;;4.80;;
44440;SDS011;30146;52.268;20.944;2023-05-10T03:59:23;9.30;;;5.10;;
44440;SDS011;30146;52.268;20.944;2023-05-10T04:01:52;8.70;;;5.00;;
44440;SDS011;30146;52.268;20.944;2023-05-10T04:04:20;6.70;;;4.60;;
44440;SDS011;30146;52.268;20.944;2023-05-10T04:06:50;8.20;;;4.80;;
44440;SDS011;30146;52.268;20.944;2023-05-10T04:09:19;7.90;;;4.90;;
44440;SDS011;30146;52.268;20.944;2023-05-10T04:11:47;10.20;;;5.20;;
44440;SDS011;30146;52.268;20.944;2023-05-10T04:14:15;8.90;;;5.40;;
44440;SDS011;30146;52.268;20.944;2023-05-10T04:16:43;10.30;;;5.10;;
44440;SDS011;30146;52.268;20.944;2023-05-10T04:19:11;9.40;;;5.00;;
44440;SDS011;30146;52.268;20.944;2023-05-10T04:21:39;9.20;;;5.00;;
44440;SDS011;30146;52.268;20.944;2023-05-10T04:24:10;9.70;;;4.50;;
44440;SDS011;30146;52.268;20.944;2023-05-10T04:26:39;9.30;;;4.90;;
44440;SDS011;30146;52.268;20.944;2023-05-10T04:29:07;12.20;;;5.00;;
44440;SDS011;30146;52.268;20.944;2023-05-10T04:31:35;7.70;;;4.70;;
44440;SDS011;30146;52.268;20.944;2023-05-10T04:34:03;9.60;;;4.10;;
44440;SDS011;30146;52.268;20.944;2023-05-10T04:36:32;6.70;;;4.50;;
44440;SDS011;30146;52.268;20.944;2023-05-10T04:39:02;7.20;;;4.50;;
44440;SDS011;30146;52.268;20.944;2023-05-10T04:41:30;8.70;;;4.20;;
44440;SDS011;30146;52.268;20.944;2023-05-10T04:43:58;12.90;;;5.40;;
44440;SDS011;30146;52.268;20.944;2023-05-10T04:46:26;9.90;;;4.60;;
44440;SDS011;30146;52.268;20.944;2023-05-10T04:48:55;9.20;;;4.40;;
44440;SDS011;30146;52.268;20.944;2023-05-10T04:51:23;15.20;;;4.90;;
44440;SDS011;30146;52.268;20.944;2023-05-10T04:53:51;15.70;;;4.60;;
44440;SDS011;30146;52.268;20.944;2023-05-10T04:56:32;8.90;;;4.90;;
44440;SDS011;30146;52.268;20.944;2023-05-10T04:59:01;8.20;;;4.60;;
44440;SDS011;30146;52.268;20.944;2023-05-10T05:01:29;14.60;;;5.40;;
44440;SDS011;30146;52.268;20.944;2023-05-10T05:03:57;8.60;;;4.60;;
44440;SDS011;30146;52.268;20.944;2023-05-10T05:06:26;8.70;;;4.50;;
44440;SDS011;30146;52.268;20.944;2023-05-10T05:08:54;11.00;;;4.80;;
44440;SDS011;30146;52.268;20.944;2023-05-10T05:11:22;12.40;;;4.70;;
44440;SDS011;30146;52.268;20.944;2023-05-10T05:13:50;6.90;;;4.50;;
44440;SDS011;30146;52.268;20.944;2023-05-10T05:16:18;9.80;;;4.60;;
44440;SDS011;30146;52.268;20.944;2023-05-10T05:18:46;11.30;;;5.50;;
44440;SDS011;30146;52.268;20.944;2023-05-10T05:21:15;9.40;;;4.90;;
44440;SDS011;30146;52.268;20.944;2023-05-10T05:23:43;12.90;;;4.80;;
44440;SDS011;30146;52.268;20.944;2023-05-10T05:26:12;20.20;;;6.20;;
44440;SDS011;30146;52.268;20.944;2023-05-10T05:28:41;15.70;;;4.90;;
44440;SDS011;30146;52.268;20.944;2023-05-10T05:31:09;12.00;;;4.70;;
44440;SDS011;30146;52.268;20.944;2023-05-10T05:33:38;8.00;;;4.30;;
44440;SDS011;30146;52.268;20.944;2023-05-10T05:36:06;11.20;;;4.40;;
44440;SDS011;30146;52.268;20.944;2023-05-10T05:38:34;10.30;;;4.20;;
44440;SDS011;30146;52.268;20.944;2023-05-10T05:41:03;12.80;;;4.70;;
44440;SDS011;30146;52.268;20.944;2023-05-10T05:43:31;11.00;;;4.20;;
44440;SDS011;30146;52.268;20.944;2023-05-10T05:46:00;11.90;;;4.50;;
44440;SDS011;30146;52.268;20.944;2023-05-10T05:48:29;8.50;;;4.30;;
44440;SDS011;30146;52.268;20.944;2023-05-10T05:50:58;8.70;;;3.90;;
44440;SDS011;30146;52.268;20.944;2023-05-10T05:53:26;14.10;;;4.30;;
44440;SDS011;30146;52.268;20.944;2023-05-10T05:55:54;9.50;;;3.80;;
44440;SDS011;30146;52.268;20.944;2023-05-10T05:58:23;9.70;;;4.10;;
44440;SDS011;30146;52.268;20.944;2023-05-10T06:00:52;11.90;;;4.80;;
44440;SDS011;30146;52.268;20.944;2023-05-10T06:03:20;14.30;;;4.90;;
44440;SDS011;30146;52.268;20.944;2023-05-10T06:05:49;10.20;;;4.60;;
44440;SDS011;30146;52.268;20.944;2023-05-10T06:08:17;7.30;;;3.80;;
44440;SDS011;30146;52.268;20.944;2023-05-10T06:10:45;18.10;;;4.70;;
44440;SDS011;30146;52.268;20.944;2023-05-10T06:13:13;143.10;;;17.40;;
44440;SDS011;30146;52.268;20.944;2023-05-10T06:15:42;213.50;;;23.60;;
44440;SDS011;30146;52.268;20.944;2023-05-10T06:18:10;130.30;;;15.40;;
44440;SDS011;30146;52.268;20.944;2023-05-10T06:20:38;25.10;;;4.60;;
44440;SDS011;30146;52.268;20.944;2023-05-10T06:23:07;9.80;;;4.20;;
44440;SDS011;30146;52.268;20.944;2023-05-10T06:25:35;13.40;;;4.10;;
44440;SDS011;30146;52.268;20.944;2023-05-10T06:28:04;15.90;;;4.30;;
44440;SDS011;30146;52.268;20.944;2023-05-10T06:30:32;8.00;;;4.10;;
44440;SDS011;30146;52.268;20.944;2023-05-10T06:33:00;11.40;;;4.20;;
44440;SDS011;30146;52.268;20.944;2023-05-10T06:35:29;15.90;;;4.70;;
44440;SDS011;30146;52.268;20.944;2023-05-10T06:37:57;8.10;;;4.10;;
44440;SDS011;30146;52.268;20.944;2023-05-10T06:40:26;9.00;;;3.60;;
44440;SDS011;30146;52.268;20.944;2023-05-10T06:42:54;9.80;;;3.70;;
44440;SDS011;30146;52.268;20.944;2023-05-10T06:45:22;13.10;;;4.30;;
44440;SDS011;30146;52.268;20.944;2023-05-10T06:47:50;9.50;;;3.40;;
44440;SDS011;30146;52.268;20.944;2023-05-10T06:50:18;10.10;;;3.70;;
44440;SDS011;30146;52.268;20.944;2023-05-10T06:52:46;8.70;;;3.20;;
44440;SDS011;30146;52.268;20.944;2023-05-10T06:55:14;12.30;;;4.10;;
44440;SDS011;30146;52.268;20.944;2023-05-10T06:57:43;26.30;;;4.30;;
44440;SDS011;30146;52.268;20.944;2023-05-10T07:00:11;23.10;;;3.60;;
44440;SDS011;30146;52.268;20.944;2023-05-10T07:02:41;8.70;;;3.30;;
44440;SDS011;30146;52.268;20.944;2023-05-10T07:05:10;14.60;;;4.20;;
44440;SDS011;30146;52.268;20.944;2023-05-10T07:07:38;25.00;;;3.80;;
44440;SDS011;30146;52.268;20.944;2023-05-10T07:10:07;6.50;;;2.70;;
44440;SDS011;30146;52.268;20.944;2023-05-10T07:12:36;10.50;;;3.20;;
44440;SDS011;30146;52.268;20.944;2023-05-10T07:15:05;15.60;;;3.20;;
44440;SDS011;30146;52.268;20.944;2023-05-10T07:17:35;11.40;;;3.60;;
44440;SDS011;30146;52.268;20.944;2023-05-10T07:20:06;9.30;;;3.70;;
44440;SDS011;30146;52.268;20.944;2023-05-10T07:22:35;8.40;;;3.20;;
44440;SDS011;30146;52.268;20.944;2023-05-10T07:25:04;5.30;;;2.60;;
44440;SDS011;30146;52.268;20.944;2023-05-10T07:27:33;3.50;;;2.20;;
44440;SDS011;30146;52.268;20.944;2023-05-10T07:30:02;9.10;;;2.60;;
44440;SDS011;30146;52.268;20.944;2023-05-10T07:32:31;4.80;;;2.50;;
44440;SDS011;30146;52.268;20.944;2023-05-10T07:34:59;12.90;;;3.00;;
44440;SDS011;30146;52.268;20.944;2023-05-10T07:37:27;12.60;;;3.00;;
44440;SDS011;30146;52.268;20.944;2023-05-10T07:39:55;15.10;;;2.70;;
44440;SDS011;30146;52.268;20.944;2023-05-10T07:42:23;14.60;;;3.30;;
44440;SDS011;30146;52.268;20.944;2023-05-10T07:44:51;4.10;;;2.60;;
44440;SDS011;30146;52.268;20.944;2023-05-10T07:47:19;5.80;;;2.90;;
44440;SDS011;30146;52.268;20.944;2023-05-10T07:49:47;8.00;;;3.40;;
44440;SDS011;30146;52.268;20.944;2023-05-10T07:52:16;8.70;;;2.80;;
44440;SDS011;30146;52.268;20.944;2023-05-10T07:54:44;6.40;;;2.60;;
44440;SDS011;30146;52.268;20.944;2023-05-10T07:57:12;4.00;;;2.70;;
44440;SDS011;30146;52.268;20.944;2023-05-10T07:59:44;11.70;;;3.10;;
44440;SDS011;30146;52.268;20.944;2023-05-10T08:02:12;11.60;;;2.80;;
44440;SDS011;30146;52.268;20.944;2023-05-10T08:04:40;8.70;;;2.50;;
44440;SDS011;30146;52.268;20.944;2023-05-10T08:07:08;4.50;;;2.40;;
44440;SDS011;30146;52.268;20.944;2023-05-10T08:09:37;10.30;;;2.80;;
44440;SDS011;30146;52.268;20.944;2023-05-10T08:12:05;7.40;;;2.80;;
44440;SDS011;30146;52.268;20.944;2023-05-10T08:14:33;14.00;;;3.00;;
44440;SDS011;30146;52.268;20.944;2023-05-10T08:17:03;12.80;;;2.80;;
44440;SDS011;30146;52.268;20.944;2023-05-10T08:19:31;11.30;;;2.70;;
44440;SDS011;30146;52.268;20.944;2023-05-10T08:21:59;8.50;;;2.40;;
44440;SDS011;30146;52.268;20.944;2023-05-10T08:24:27;3.80;;;2.70;;
44440;SDS011;30146;52.268;20.944;2023-05-10T08:26:55;6.70;;;2.40;;
44440;SDS011;30146;52.268;20.944;2023-05-10T08:29:24;5.70;;;2.50;;
44440;SDS011;30146;52.268;20.944;2023-05-10T08:31:54;5.80;;;2.20;;
44440;SDS011;30146;52.268;20.944;2023-05-10T08:34:23;14.20;;;2.50;;
44440;SDS011;30146;52.268;20.944;2023-05-10T08:36:52;11.30;;;2.10;;
44440;SDS011;30146;52.268;20.944;2023-05-10T08:39:21;5.50;;;2.40;;
44440;SDS011;30146;52.268;20.944;2023-05-10T08:41:57;4.00;;;2.30;;
44440;SDS011;30146;52.268;20.944;2023-05-10T08:44:29;4.90;;;2.60;;
44440;SDS011;30146;52.268;20.944;2023-05-10T08:46:58;11.30;;;2.40;;
44440;SDS011;30146;52.268;20.944;2023-05-10T08:49:29;10.00;;;2.30;;
44440;SDS011;30146;52.268;20.944;2023-05-10T08:51:59;5.00;;;2.20;;
44440;SDS011;30146;52.268;20.944;2023-05-10T08:54:31;12.70;;;2.50;;
44440;SDS011;30146;52.268;20.944;2023-05-10T08:57:00;7.10;;;2.50;;
44440;SDS011;30146;52.268;20.944;2023-05-10T08:59:29;8.20;;;2.50;;
44440;SDS011;30146;52.268;20.944;2023-05-10T09:01:57;12.70;;;3.10;;
44440;SDS011;30146;52.268;20.944;2023-05-10T09:04:26;5.40;;;2.80;;
44440;SDS011;30146;52.268;20.944;2023-05-10T09:06:56;13.60;;;2.60;;
44440;SDS011;30146;52.268;20.944;2023-05-10T09:09:25;4.30;;;1.90;;
44440;SDS011;30146;52.268;20.944;2023-05-10T09:11:54;4.60;;;2.70;;
44440;SDS011;30146;52.268;20.944;2023-05-10T09:14:22;8.30;;;2.30;;
44440;SDS011;30146;52.268;20.944;2023-05-10T09:16:51;15.50;;;2.10;;
44440;SDS011;30146;52.268;20.944;2023-05-10T09:19:21;39.50;;;5.10;;
44440;SDS011;30146;52.268;20.944;2023-05-10T09:21:49;42.40;;;4.90;;
44440;SDS011;30146;52.268;20.944;2023-05-10T09:24:17;6.90;;;2.60;;
44440;SDS011;30146;52.268;20.944;2023-05-10T09:26:48;30.20;;;3.50;;
44440;SDS011;30146;52.268;20.944;2023-05-10T09:29:16;55.40;;;7.10;;
44440;SDS011;30146;52.268;20.944;2023-05-10T09:31:45;69.80;;;6.30;;
44440;SDS011;30146;52.268;20.944;2023-05-10T09:34:18;8.20;;;3.00;;
44440;SDS011;30146;52.268;20.944;2023-05-10T09:36:54;24.80;;;4.10;;
44440;SDS011;30146;52.268;20.944;2023-05-10T09:39:30;24.00;;;3.80;;
44440;SDS011;30146;52.268;20.944;2023-05-10T09:42:00;27.70;;;4.10;;
44440;SDS011;30146;52.268;20.944;2023-05-10T09:44:31;86.10;;;10.30;;
44440;SDS011;30146;52.268;20.944;2023-05-10T09:47:00;11.80;;;2.80;;
44440;SDS011;30146;52.268;20.944;2023-05-10T09:49:29;9.50;;;2.90;;
44440;SDS011;30146;52.268;20.944;2023-05-10T09:52:01;9.90;;;2.20;;
44440;SDS011;30146;52.268;20.944;2023-05-10T09:54:31;9.20;;;2.90;;
44440;SDS011;30146;52.268;20.944;2023-05-10T09:56:59;17.00;;;3.90;;
44440;SDS011;30146;52.268;20.944;2023-05-10T09:59:28;8.10;;;3.10;;
44440;SDS011;30146;52.268;20.944;2023-05-10T10:01:57;13.60;;;2.80;;
44440;SDS011;30146;52.268;20.944;2023-05-10T10:04:26;12.80;;;2.70;;
44440;SDS011;30146;52.268;20.944;2023-05-10T10:07:02;7.10;;;2.70;;
44440;SDS011;30146;52.268;20.944;2023-05-10T10:09:32;18.30;;;3.60;;
44440;SDS011;30146;52.268;20.944;2023-05-10T10:12:01;39.80;;;4.50;;
44440;SDS011;30146;52.268;20.944;2023-05-10T10:14:31;9.20;;;2.80;;
44440;SDS011;30146;52.268;20.944;2023-05-10T10:17:00;5.90;;;2.60;;
44440;SDS011;30146;52.268;20.944;2023-05-10T10:19:35;6.40;;;2.40;;
44440;SDS011;30146;52.268;20.944;2023-05-10T10:22:04;5.30;;;2.70;;
44440;SDS011;30146;52.268;20.944;2023-05-10T10:24:33;7.50;;;2.70;;
44440;SDS011;30146;52.268;20.944;2023-05-10T10:27:04;5.00;;;2.80;;
44440;SDS011;30146;52.268;20.944;2023-05-10T10:29:43;14.50;;;2.60;;
44440;SDS011;30146;52.268;20.944;2023-05-10T10:32:22;13.30;;;2.50;;
44440;SDS011;30146;52.268;20.944;2023-05-10T10:34:57;7.50;;;2.40;;
44440;SDS011;30146;52.268;20.944;2023-05-10T10:40:28;4.20;;;2.60;;
44440;SDS011;30146;52.268;20.944;2023-05-10T10:48:39;6.00;;;2.80;;
44440;SDS011;30146;52.268;20.944;2023-05-10T10:51:08;6.60;;;2.20;;
44440;SDS011;30146;52.268;20.944;2023-05-10T10:53:39;4.10;;;2.20;;
44440;SDS011;30146;52.268;20.944;2023-05-10T10:56:10;8.80;;;3.00;;
44440;SDS011;30146;52.268;20.944;2023-05-10T10:58:40;10.40;;;2.80;;
44440;SDS011;30146;52.268;20.944;2023-05-10T11:01:18;4.50;;;2.40;;
44440;SDS011;30146;52.268;20.944;2023-05-10T11:06:44;8.10;;;2.30;;
44440;SDS011;30146;52.268;20.944;2023-05-10T11:09:14;13.20;;;2.60;;
44440;SDS011;30146;52.268;20.944;2023-05-10T11:11:51;14.30;;;3.00;;
44440;SDS011;30146;52.268;20.944;2023-05-10T11:14:21;11.60;;;3.20;;
44440;SDS011;30146;52.268;20.944;2023-05-10T11:16:49;11.90;;;2.40;;
44440;SDS011;30146;52.268;20.944;2023-05-10T11:19:18;9.20;;;2.40;;
44440;SDS011;30146;52.268;20.944;2023-05-10T11:21:47;6.00;;;2.40;;
44440;SDS011;30146;52.268;20.944;2023-05-10T11:24:17;4.70;;;2.40;;
44440;SDS011;30146;52.268;20.944;2023-05-10T11:26:48;8.10;;;3.30;;
44440;SDS011;30146;52.268;20.944;2023-05-10T11:29:18;7.10;;;2.70;;
44440;SDS011;30146;52.268;20.944;2023-05-10T11:31:47;17.00;;;3.40;;
44440;SDS011;30146;52.268;20.944;2023-05-10T11:34:23;8.60;;;3.10;;
44440;SDS011;30146;52.268;20.944;2023-05-10T11:36:53;9.60;;;2.80;;
44440;SDS011;30146;52.268;20.944;2023-05-10T11:39:25;9.20;;;2.80;;
44440;SDS011;30146;52.268;20.944;2023-05-10T11:41:55;5.20;;;2.00;;
44440;SDS011;30146;52.268;20.944;2023-05-10T11:44:24;7.80;;;2.60;;
44440;SDS011;30146;52.268;20.944;2023-05-10T11:47:00;9.80;;;2.80;;
44440;SDS011;30146;52.268;20.944;2023-05-10T11:49:29;6.30;;;2.80;;
44440;SDS011;30146;52.268;20.944;2023-05-10T11:52:06;5.20;;;2.40;;
44440;SDS011;30146;52.268;20.944;2023-05-10T11:54:35;9.30;;;3.00;;
44440;SDS011;30146;52.268;20.944;2023-05-10T11:57:03;5.60;;;2.60;;
44440;SDS011;30146;52.268;20.944;2023-05-10T11:59:32;11.10;;;2.80;;
44440;SDS011;30146;52.268;20.944;2023-05-10T12:02:00;7.10;;;2.40;;
44440;SDS011;30146;52.268;20.944;2023-05-10T12:04:29;11.40;;;3.00;;
44440;SDS011;30146;52.268;20.944;2023-05-10T12:06:58;7.60;;;3.10;;
44440;SDS011;30146;52.268;20.944;2023-05-10T12:09:26;14.00;;;2.70;;
44440;SDS011;30146;52.268;20.944;2023-05-10T12:12:10;6.30;;;2.60;;
44440;SDS011;30146;52.268;20.944;2023-05-10T12:14:42;6.30;;;2.40;;
44440;SDS011;30146;52.268;20.944;2023-05-10T12:17:12;4.40;;;2.40;;
44440;SDS011;30146;52.268;20.944;2023-05-10T12:19:40;17.70;;;3.10;;
44440;SDS011;30146;52.268;20.944;2023-05-10T12:22:10;11.30;;;3.20;;
44440;SDS011;30146;52.268;20.944;2023-05-10T12:24:38;29.00;;;4.80;;
44440;SDS011;30146;52.268;20.944;2023-05-10T12:27:08;25.40;;;3.40;;
44440;SDS011;30146;52.268;20.944;2023-05-10T12:29:59;92.70;;;9.60;;
44440;SDS011;30146;52.268;20.944;2023-05-10T12:32:37;13.60;;;3.20;;
44440;SDS011;30146;52.268;20.944;2023-05-10T12:35:06;73.50;;;6.00;;
44440;SDS011;30146;52.268;20.944;2023-05-10T12:37:35;37.70;;;4.60;;
44440;SDS011;30146;52.268;20.944;2023-05-10T12:40:06;64.60;;;7.20;;
44440;SDS011;30146;52.268;20.944;2023-05-10T12:42:36;9.20;;;2.40;;
44440;SDS011;30146;52.268;20.944;2023-05-10T12:45:06;13.70;;;2.70;;
44440;SDS011;30146;52.268;20.944;2023-05-10T12:47:35;14.00;;;3.20;;
44440;SDS011;30146;52.268;20.944;2023-05-10T12:50:10;5.30;;;2.50;;
44440;SDS011;30146;52.268;20.944;2023-05-10T12:52:39;15.20;;;3.00;;
44440;SDS011;30146;52.268;20.944;2023-05-10T12:55:08;5.10;;;2.50;;
44440;SDS011;30146;52.268;20.944;2023-05-10T12:57:36;12.30;;;2.50;;
44440;SDS011;30146;52.268;20.944;2023-05-10T13:00:06;11.20;;;2.40;;
44440;SDS011;30146;52.268;20.944;2023-05-10T13:02:35;3.60;;;2.30;;
44440;SDS011;30146;52.268;20.944;2023-05-10T13:05:04;14.30;;;3.10;;
44440;SDS011;30146;52.268;20.944;2023-05-10T13:07:34;38.70;;;5.00;;
44440;SDS011;30146;52.268;20.944;2023-05-10T13:10:02;12.90;;;3.40;;
44440;SDS011;30146;52.268;20.944;2023-05-10T13:12:31;6.60;;;2.30;;
44440;SDS011;30146;52.268;20.944;2023-05-10T13:14:59;6.00;;;2.60;;
44440;SDS011;30146;52.268;20.944;2023-05-10T13:17:27;3.70;;;2.30;;
44440;SDS011;30146;52.268;20.944;2023-05-10T13:19:58;11.30;;;3.40;;
44440;SDS011;30146;52.268;20.944;2023-05-10T13:22:26;8.50;;;2.70;;
44440;SDS011;30146;52.268;20.944;2023-05-10T13:25:08;10.50;;;2.70;;
44440;SDS011;30146;52.268;20.944;2023-05-10T13:27:37;7.80;;;3.00;;
44440;SDS011;30146;52.268;20.944;2023-05-10T13:30:06;11.00;;;3.10;;
44440;SDS011;30146;52.268;20.944;2023-05-10T13:32:36;3.90;;;3.00;;
44440;SDS011;30146;52.268;20.944;2023-05-10T13:35:06;8.50;;;3.00;;
44440;SDS011;30146;52.268;20.944;2023-05-10T13:37:34;16.00;;;3.10;;
44440;SDS011;30146;52.268;20.944;2023-05-10T13:40:04;9.20;;;2.50;;
44440;SDS011;30146;52.268;20.944;2023-05-10T13:42:34;7.30;;;2.70;;
44440;SDS011;30146;52.268;20.944;2023-05-10T13:45:02;4.30;;;2.50;;
44440;SDS011;30146;52.268;20.944;2023-05-10T13:47:32;12.40;;;2.70;;
44440;SDS011;30146;52.268;20.944;2023-05-10T13:50:03;7.20;;;2.60;;
44440;SDS011;30146;52.268;20.944;2023-05-10T13:52:33;7.40;;;2.50;;
44440;SDS011;30146;52.268;20.944;2023-05-10T13:55:01;8.90;;;2.40;;
44440;SDS011;30146;52.268;20.944;2023-05-10T13:57:30;3.10;;;2.20;;
44440;SDS011;30146;52.268;20.944;2023-05-10T14:00:01;9.00;;;2.30;;
44440;SDS011;30146;52.268;20.944;2023-05-10T14:02:34;11.70;;;2.30;;
44440;SDS011;30146;52.268;20.944;2023-05-10T14:05:03;11.80;;;2.40;;
44440;SDS011;30146;52.268;20.944;2023-05-10T14:07:32;9.70;;;2.90;;
44440;SDS011;30146;52.268;20.944;2023-05-10T14:10:01;20.40;;;2.70;;
44440;SDS011;30146;52.268;20.944;2023-05-10T14:12:30;5.60;;;2.50;;
44440;SDS011;30146;52.268;20.944;2023-05-10T14:14:59;8.60;;;3.00;;
44440;SDS011;30146;52.268;20.944;2023-05-10T14:17:27;13.00;;;2.80;;
44440;SDS011;30146;52.268;20.944;2023-05-10T14:19:56;10.60;;;2.50;;
44440;SDS011;30146;52.268;20.944;2023-05-10T14:22:24;10.10;;;2.40;;
44440;SDS011;30146;52.268;20.944;2023-05-10T14:24:52;15.20;;;2.50;;
44440;SDS011;30146;52.268;20.944;2023-05-10T14:27:21;6.40;;;3.70;;
44440;SDS011;30146;52.268;20.944;2023-05-10T14:29:49;10.50;;;3.10;;
44440;SDS011;30146;52.268;20.944;2023-05-10T14:32:18;17.10;;;3.20;;
44440;SDS011;30146;52.268;20.944;2023-05-10T14:34:46;6.80;;;2.30;;
44440;SDS011;30146;52.268;20.944;2023-05-10T14:37:14;2.30;;;2.00;;
44440;SDS011;30146;52.268;20.944;2023-05-10T14:39:43;9.00;;;2.50;;
44440;SDS011;30146;52.268;20.944;2023-05-10T14:42:11;7.50;;;2.70;;
44440;SDS011;30146;52.268;20.944;2023-05-10T14:44:39;3.80;;;2.40;;
44440;SDS011;30146;52.268;20.944;2023-05-10T14:47:08;8.40;;;2.40;;
44440;SDS011;30146;52.268;20.944;2023-05-10T14:49:38;9.30;;;6.00;;
44440;SDS011;30146;52.268;20.944;2023-05-10T14:52:07;4.90;;;2.40;;
44440;SDS011;30146;52.268;20.944;2023-05-10T14:54:35;7.40;;;2.20;;
44440;SDS011;30146;52.268;20.944;2023-05-10T14:57:04;3.70;;;2.20;;
44440;SDS011;30146;52.268;20.944;2023-05-10T14:59:32;6.00;;;2.80;;
44440;SDS011;30146;52.268;20.944;2023-05-10T15:02:01;12.70;;;2.30;;